sensor_id;sensor_type;location;lat;lon;timestamp;temperature;humidity
29731;DHT22;16639;51.488;0.152;2023-02-28T00:01:27;5.30;99.90
29731;DHT22;16639;51.488;0.152;2023-02-28T00:03:55;4.80;99.90
29731;DHT22;16639;51.488;0.152;2023-02-28T00:06:23;4.80;99.90
29731;DHT22;16639;51.488;0.152;2023-02-28T00:08:51;4.80;99.90
29731;DHT22;16639;51.488;0.152;2023-02-28T00:11:18;4.80;99.90
29731;DHT22;16639;51.488;0.152;2023-02-28T00:13:47;4.80;99.90
29731;DHT22;16639;51.488;0.152;2023-02-28T00:16:20;4.80;99.90
29731;DHT22;16639;51.488;0.152;2023-02-28T00:18:48;4.70;99.90
29731;DHT22;16639;51.488;0.152;2023-02-28T00:21:17;4.70;99.90
29731;DHT22;16639;51.488;0.152;2023-02-28T00:23:44;4.70;99.90
29731;DHT22;16639;51.488;0.152;2023-02-28T00:26:12;4.80;99.90
29731;DHT22;16639;51.488;0.152;2023-02-28T00:28:39;4.70;99.90
29731;DHT22;16639;51.488;0.152;2023-02-28T00:31:07;4.70;99.90
29731;DHT22;16639;51.488;0.152;2023-02-28T00:33:35;4.70;99.90
29731;DHT22;16639;51.488;0.152;2023-02-28T00:36:04;4.70;99.90
29731;DHT22;16639;51.488;0.152;2023-02-28T00:38:33;4.70;99.90
29731;DHT22;16639;51.488;0.152;2023-02-28T00:41:00;4.70;99.90
29731;DHT22;16639;51.488;0.152;2023-02-28T00:43:33;4.70;99.90
29731;DHT22;16639;51.488;0.152;2023-02-28T00:46:01;4.60;99.90
29731;DHT22;16639;51.488;0.152;2023-02-28T00:48:28;4.60;99.90
29731;DHT22;16639;51.488;0.152;2023-02-28T00:50:56;4.70;99.90
29731;DHT22;16639;51.488;0.152;2023-02-28T00:53:23;5.50;99.90
29731;DHT22;16639;51.488;0.152;2023-02-28T00:55:51;4.70;99.90
29731;DHT22;16639;51.488;0.152;2023-02-28T00:58:18;4.60;99.90
29731;DHT22;16639;51.488;0.152;2023-02-28T01:00:46;4.60;99.90
29731;DHT22;16639;51.488;0.152;2023-02-28T01:03:17;4.60;99.90
29731;DHT22;16639;51.488;0.152;2023-02-28T01:05:45;4.60;99.90
29731;DHT22;16639;51.488;0.152;2023-02-28T01:08:13;4.60;99.90
29731;DHT22;16639;51.488;0.152;2023-02-28T01:10:41;4.60;99.90
29731;DHT22;16639;51.488;0.152;2023-02-28T01:13:09;4.60;99.90
29731;DHT22;16639;51.488;0.152;2023-02-28T01:15:37;4.70;99.90
29731;DHT22;16639;51.488;0.152;2023-02-28T01:18:05;4.70;99.90
29731;DHT22;16639;51.488;0.152;2023-02-28T01:20:32;4.60;99.90
29731;DHT22;16639;51.488;0.152;2023-02-28T01:22:59;4.60;99.90
29731;DHT22;16639;51.488;0.152;2023-02-28T01:25:27;4.60;99.90
29731;DHT22;16639;51.488;0.152;2023-02-28T01:27:54;4.50;99.90
29731;DHT22;16639;51.488;0.152;2023-02-28T01:30:21;4.50;99.90
29731;DHT22;16639;51.488;0.152;2023-02-28T01:32:48;5.90;99.90
29731;DHT22;16639;51.488;0.152;2023-02-28T01:35:18;4.50;99.90
29731;DHT22;16639;51.488;0.152;2023-02-28T01:37:45;4.50;99.90
29731;DHT22;16639;51.488;0.152;2023-02-28T01:40:13;4.50;99.90
29731;DHT22;16639;51.488;0.152;2023-02-28T01:42:40;4.50;99.90
29731;DHT22;16639;51.488;0.152;2023-02-28T01:45:31;4.50;99.90
29731;DHT22;16639;51.488;0.152;2023-02-28T01:48:05;4.50;99.90
29731;DHT22;16639;51.488;0.152;2023-02-28T01:50:35;4.50;99.90
29731;DHT22;16639;51.488;0.152;2023-02-28T01:53:08;5.40;99.90
29731;DHT22;16639;51.488;0.152;2023-02-28T01:55:37;5.90;99.90
29731;DHT22;16639;51.488;0.152;2023-02-28T01:58:06;4.70;99.90
29731;DHT22;16639;51.488;0.152;2023-02-28T02:00:34;4.60;99.90
29731;DHT22;16639;51.488;0.152;2023-02-28T02:03:13;4.60;99.90
29731;DHT22;16639;51.488;0.152;2023-02-28T02:05:43;4.60;99.90
29731;DHT22;16639;51.488;0.152;2023-02-28T02:08:22;4.50;99.90
29731;DHT22;16639;51.488;0.152;2023-02-28T02:11:01;4.50;99.90
29731;DHT22;16639;51.488;0.152;2023-02-28T02:13:38;4.40;99.90
29731;DHT22;16639;51.488;0.152;2023-02-28T02:24:27;4.70;99.90
29731;DHT22;16639;51.488;0.152;2023-02-28T02:29:58;4.40;99.90
29731;DHT22;16639;51.488;0.152;2023-02-28T02:40:40;4.30;99.90
29731;DHT22;16639;51.488;0.152;2023-02-28T02:43:48;4.40;99.90
29731;DHT22;16639;51.488;0.152;2023-02-28T02:46:26;4.40;99.90
29731;DHT22;16639;51.488;0.152;2023-02-28T02:48:57;4.30;99.90
29731;DHT22;16639;51.488;0.152;2023-02-28T02:51:28;4.30;99.90
29731;DHT22;16639;51.488;0.152;2023-02-28T02:54:08;4.30;99.90
29731;DHT22;16639;51.488;0.152;2023-02-28T02:56:39;4.30;99.90
29731;DHT22;16639;51.488;0.152;2023-02-28T02:59:12;4.40;99.90
29731;DHT22;16639;51.488;0.152;2023-02-28T03:01:41;4.40;99.90
29731;DHT22;16639;51.488;0.152;2023-02-28T03:04:12;4.40;99.90
29731;DHT22;16639;51.488;0.152;2023-02-28T03:06:41;4.40;99.90
29731;DHT22;16639;51.488;0.152;2023-02-28T03:09:08;4.40;99.90
29731;DHT22;16639;51.488;0.152;2023-02-28T03:11:37;4.30;99.90
29731;DHT22;16639;51.488;0.152;2023-02-28T03:31:08;4.30;99.90
29731;DHT22;16639;51.488;0.152;2023-02-28T03:33:42;4.30;99.90
29731;DHT22;16639;51.488;0.152;2023-02-28T03:36:17;4.30;99.90
29731;DHT22;16639;51.488;0.152;2023-02-28T03:39:01;4.30;99.90
29731;DHT22;16639;51.488;0.152;2023-02-28T03:41:38;4.30;99.90
29731;DHT22;16639;51.488;0.152;2023-02-28T03:47:26;4.30;99.90
29731;DHT22;16639;51.488;0.152;2023-02-28T03:50:20;4.30;99.90
29731;DHT22;16639;51.488;0.152;2023-02-28T03:53:04;4.40;99.90
29731;DHT22;16639;51.488;0.152;2023-02-28T03:55:39;4.40;99.90
29731;DHT22;16639;51.488;0.152;2023-02-28T04:00:49;4.30;99.90
29731;DHT22;16639;51.488;0.152;2023-02-28T04:03:18;4.40;99.90
29731;DHT22;16639;51.488;0.152;2023-02-28T04:05:55;4.30;99.90
29731;DHT22;16639;51.488;0.152;2023-02-28T04:08:23;4.30;99.90
29731;DHT22;16639;51.488;0.152;2023-02-28T04:11:21;4.30;99.90
29731;DHT22;16639;51.488;0.152;2023-02-28T04:13:49;4.20;99.90
29731;DHT22;16639;51.488;0.152;2023-02-28T04:16:17;4.20;99.90
29731;DHT22;16639;51.488;0.152;2023-02-28T04:19:01;4.20;99.90
29731;DHT22;16639;51.488;0.152;2023-02-28T04:21:37;4.10;99.90
29731;DHT22;16639;51.488;0.152;2023-02-28T04:24:07;4.20;99.90
29731;DHT22;16639;51.488;0.152;2023-02-28T04:26:36;4.30;99.90
29731;DHT22;16639;51.488;0.152;2023-02-28T04:29:05;4.20;99.90
29731;DHT22;16639;51.488;0.152;2023-02-28T04:31:33;4.30;99.90
29731;DHT22;16639;51.488;0.152;2023-02-28T04:34:00;4.10;99.90
29731;DHT22;16639;51.488;0.152;2023-02-28T04:36:28;4.20;99.90
29731;DHT22;16639;51.488;0.152;2023-02-28T04:38:56;4.10;99.90
29731;DHT22;16639;51.488;0.152;2023-02-28T04:41:24;4.10;99.90
29731;DHT22;16639;51.488;0.152;2023-02-28T04:43:52;4.10;99.90
29731;DHT22;16639;51.488;0.152;2023-02-28T04:46:20;4.10;99.90
29731;DHT22;16639;51.488;0.152;2023-02-28T04:48:48;4.00;99.90
29731;DHT22;16639;51.488;0.152;2023-02-28T04:51:17;3.90;99.90
29731;DHT22;16639;51.488;0.152;2023-02-28T04:53:45;3.80;99.90
29731;DHT22;16639;51.488;0.152;2023-02-28T04:56:14;3.80;99.90
29731;DHT22;16639;51.488;0.152;2023-02-28T04:58:42;3.70;99.90
29731;DHT22;16639;51.488;0.152;2023-02-28T05:03:43;3.70;99.90
29731;DHT22;16639;51.488;0.152;2023-02-28T05:06:12;4.20;99.90
29731;DHT22;16639;51.488;0.152;2023-02-28T05:08:40;3.60;99.90
29731;DHT22;16639;51.488;0.152;2023-02-28T05:11:17;3.70;99.90
29731;DHT22;16639;51.488;0.152;2023-02-28T05:13:45;3.70;99.90
29731;DHT22;16639;51.488;0.152;2023-02-28T05:16:12;3.40;99.90
29731;DHT22;16639;51.488;0.152;2023-02-28T05:18:40;3.50;99.90
29731;DHT22;16639;51.488;0.152;2023-02-28T05:21:30;3.50;99.90
29731;DHT22;16639;51.488;0.152;2023-02-28T05:24:01;3.50;99.90
29731;DHT22;16639;51.488;0.152;2023-02-28T05:26:29;4.30;99.90
29731;DHT22;16639;51.488;0.152;2023-02-28T05:28:57;3.80;99.90
29731;DHT22;16639;51.488;0.152;2023-02-28T05:31:24;3.60;99.90
29731;DHT22;16639;51.488;0.152;2023-02-28T05:33:52;3.60;99.90
29731;DHT22;16639;51.488;0.152;2023-02-28T05:36:20;5.10;99.90
29731;DHT22;16639;51.488;0.152;2023-02-28T05:38:48;3.60;99.90
29731;DHT22;16639;51.488;0.152;2023-02-28T05:41:16;3.60;99.90
29731;DHT22;16639;51.488;0.152;2023-02-28T05:43:44;3.60;99.90
29731;DHT22;16639;51.488;0.152;2023-02-28T05:46:12;3.60;99.90
29731;DHT22;16639;51.488;0.152;2023-02-28T05:48:41;3.60;99.90
29731;DHT22;16639;51.488;0.152;2023-02-28T05:51:09;3.60;99.90
29731;DHT22;16639;51.488;0.152;2023-02-28T05:53:36;3.70;99.90
29731;DHT22;16639;51.488;0.152;2023-02-28T05:56:04;3.70;99.90
29731;DHT22;16639;51.488;0.152;2023-02-28T05:58:32;4.00;99.90
29731;DHT22;16639;51.488;0.152;2023-02-28T06:01:00;3.70;99.90
29731;DHT22;16639;51.488;0.152;2023-02-28T06:03:45;3.70;99.90
29731;DHT22;16639;51.488;0.152;2023-02-28T06:06:12;3.80;99.90
29731;DHT22;16639;51.488;0.152;2023-02-28T06:08:40;3.80;99.90
29731;DHT22;16639;51.488;0.152;2023-02-28T06:11:07;3.80;99.90
29731;DHT22;16639;51.488;0.152;2023-02-28T06:13:34;3.80;99.90
29731;DHT22;16639;51.488;0.152;2023-02-28T06:16:02;3.80;99.90
29731;DHT22;16639;51.488;0.152;2023-02-28T06:18:29;3.60;99.90
29731;DHT22;16639;51.488;0.152;2023-02-28T06:20:56;3.60;99.90
29731;DHT22;16639;51.488;0.152;2023-02-28T06:23:24;4.50;99.90
29731;DHT22;16639;51.488;0.152;2023-02-28T06:25:51;3.80;99.90
29731;DHT22;16639;51.488;0.152;2023-02-28T06:28:20;3.80;99.90
29731;DHT22;16639;51.488;0.152;2023-02-28T06:30:47;3.90;99.90
29731;DHT22;16639;51.488;0.152;2023-02-28T06:33:14;3.90;99.90
29731;DHT22;16639;51.488;0.152;2023-02-28T06:35:47;3.90;99.90
29731;DHT22;16639;51.488;0.152;2023-02-28T06:38:14;3.90;99.90
29731;DHT22;16639;51.488;0.152;2023-02-28T06:40:41;5.30;99.90
29731;DHT22;16639;51.488;0.152;2023-02-28T06:43:09;3.90;99.90
29731;DHT22;16639;51.488;0.152;2023-02-28T06:45:43;4.00;99.90
29731;DHT22;16639;51.488;0.152;2023-02-28T06:48:11;4.00;99.90
29731;DHT22;16639;51.488;0.152;2023-02-28T06:50:38;4.00;99.90
29731;DHT22;16639;51.488;0.152;2023-02-28T06:53:05;4.10;99.90
29731;DHT22;16639;51.488;0.152;2023-02-28T06:55:33;4.10;99.90
29731;DHT22;16639;51.488;0.152;2023-02-28T06:58:00;4.10;99.90
29731;DHT22;16639;51.488;0.152;2023-02-28T07:00:28;4.10;99.90
29731;DHT22;16639;51.488;0.152;2023-02-28T07:02:55;4.00;99.90
29731;DHT22;16639;51.488;0.152;2023-02-28T07:05:23;4.00;99.90
29731;DHT22;16639;51.488;0.152;2023-02-28T07:07:50;4.00;99.90
29731;DHT22;16639;51.488;0.152;2023-02-28T07:10:19;4.00;99.90
29731;DHT22;16639;51.488;0.152;2023-02-28T07:12:46;4.00;99.90
29731;DHT22;16639;51.488;0.152;2023-02-28T07:15:14;4.00;99.90
29731;DHT22;16639;51.488;0.152;2023-02-28T07:17:41;4.00;99.90
29731;DHT22;16639;51.488;0.152;2023-02-28T07:20:09;4.10;99.90
29731;DHT22;16639;51.488;0.152;2023-02-28T07:22:37;4.10;99.90
29731;DHT22;16639;51.488;0.152;2023-02-28T07:25:06;4.20;99.90
29731;DHT22;16639;51.488;0.152;2023-02-28T07:27:33;4.20;99.90
29731;DHT22;16639;51.488;0.152;2023-02-28T07:30:01;4.30;99.90
29731;DHT22;16639;51.488;0.152;2023-02-28T07:32:30;4.30;99.90
29731;DHT22;16639;51.488;0.152;2023-02-28T07:34:57;4.40;99.90
29731;DHT22;16639;51.488;0.152;2023-02-28T07:37:25;4.50;99.90
29731;DHT22;16639;51.488;0.152;2023-02-28T07:39:52;4.50;99.90
29731;DHT22;16639;51.488;0.152;2023-02-28T07:42:19;4.50;99.90
29731;DHT22;16639;51.488;0.152;2023-02-28T07:44:48;4.50;99.90
29731;DHT22;16639;51.488;0.152;2023-02-28T07:47:15;4.20;99.90
29731;DHT22;16639;51.488;0.152;2023-02-28T07:49:42;4.60;99.90
29731;DHT22;16639;51.488;0.152;2023-02-28T07:52:10;4.40;99.90
29731;DHT22;16639;51.488;0.152;2023-02-28T07:54:38;4.50;99.90
29731;DHT22;16639;51.488;0.152;2023-02-28T07:57:05;5.40;99.90
29731;DHT22;16639;51.488;0.152;2023-02-28T07:59:32;4.60;99.90
29731;DHT22;16639;51.488;0.152;2023-02-28T08:02:00;4.60;99.90
29731;DHT22;16639;51.488;0.152;2023-02-28T08:04:27;4.70;99.90
29731;DHT22;16639;51.488;0.152;2023-02-28T08:06:56;4.70;99.90
29731;DHT22;16639;51.488;0.152;2023-02-28T08:09:23;4.70;99.90
29731;DHT22;16639;51.488;0.152;2023-02-28T08:11:50;4.80;99.90
29731;DHT22;16639;51.488;0.152;2023-02-28T08:14:18;4.80;99.90
29731;DHT22;16639;51.488;0.152;2023-02-28T08:16:45;4.90;99.90
29731;DHT22;16639;51.488;0.152;2023-02-28T08:19:12;4.90;99.90
29731;DHT22;16639;51.488;0.152;2023-02-28T08:21:39;4.30;99.90
29731;DHT22;16639;51.488;0.152;2023-02-28T08:24:07;5.00;99.90
29731;DHT22;16639;51.488;0.152;2023-02-28T08:26:34;5.00;99.90
29731;DHT22;16639;51.488;0.152;2023-02-28T08:29:01;5.10;99.90
29731;DHT22;16639;51.488;0.152;2023-02-28T08:31:29;5.20;99.90
29731;DHT22;16639;51.488;0.152;2023-02-28T08:33:56;5.30;99.90
29731;DHT22;16639;51.488;0.152;2023-02-28T08:36:26;5.40;99.90
29731;DHT22;16639;51.488;0.152;2023-02-28T08:38:56;5.40;99.90
29731;DHT22;16639;51.488;0.152;2023-02-28T08:41:25;5.60;99.90
29731;DHT22;16639;51.488;0.152;2023-02-28T08:43:53;5.60;99.90
29731;DHT22;16639;51.488;0.152;2023-02-28T08:46:21;5.70;99.90
29731;DHT22;16639;51.488;0.152;2023-02-28T08:48:52;5.70;99.90
29731;DHT22;16639;51.488;0.152;2023-02-28T08:51:21;5.80;99.90
29731;DHT22;16639;51.488;0.152;2023-02-28T08:53:55;5.80;99.90
29731;DHT22;16639;51.488;0.152;2023-02-28T08:56:23;5.80;99.90
29731;DHT22;16639;51.488;0.152;2023-02-28T08:58:51;8.90;99.90
29731;DHT22;16639;51.488;0.152;2023-02-28T09:01:23;5.80;99.90
29731;DHT22;16639;51.488;0.152;2023-02-28T09:03:51;5.90;99.90
29731;DHT22;16639;51.488;0.152;2023-02-28T09:06:21;5.80;99.90
29731;DHT22;16639;51.488;0.152;2023-02-28T09:08:48;5.80;99.90
29731;DHT22;16639;51.488;0.152;2023-02-28T09:11:16;7.20;99.90
29731;DHT22;16639;51.488;0.152;2023-02-28T09:13:45;6.00;99.90
29731;DHT22;16639;51.488;0.152;2023-02-28T09:16:15;6.00;99.90
29731;DHT22;16639;51.488;0.152;2023-02-28T09:18:43;6.00;99.90
29731;DHT22;16639;51.488;0.152;2023-02-28T09:21:13;6.00;99.90
29731;DHT22;16639;51.488;0.152;2023-02-28T09:23:42;6.00;99.90
29731;DHT22;16639;51.488;0.152;2023-02-28T09:26:21;6.70;99.90
29731;DHT22;16639;51.488;0.152;2023-02-28T09:28:50;6.10;99.90
29731;DHT22;16639;51.488;0.152;2023-02-28T09:31:22;6.10;99.90
29731;DHT22;16639;51.488;0.152;2023-02-28T09:33:51;6.20;99.90
29731;DHT22;16639;51.488;0.152;2023-02-28T09:36:19;6.20;99.90
29731;DHT22;16639;51.488;0.152;2023-02-28T09:38:49;6.20;99.90
29731;DHT22;16639;51.488;0.152;2023-02-28T09:41:21;6.20;99.90
29731;DHT22;16639;51.488;0.152;2023-02-28T09:43:53;6.40;99.90
29731;DHT22;16639;51.488;0.152;2023-02-28T09:46:43;6.20;99.90
29731;DHT22;16639;51.488;0.152;2023-02-28T09:49:15;7.50;99.90
29731;DHT22;16639;51.488;0.152;2023-02-28T09:51:50;6.20;99.90
29731;DHT22;16639;51.488;0.152;2023-02-28T09:54:23;6.30;99.90
29731;DHT22;16639;51.488;0.152;2023-02-28T09:57:04;6.20;99.90
29731;DHT22;16639;51.488;0.152;2023-02-28T10:03:00;6.30;99.90
29731;DHT22;16639;51.488;0.152;2023-02-28T10:05:43;6.30;99.90
29731;DHT22;16639;51.488;0.152;2023-02-28T10:08:19;6.40;99.90
29731;DHT22;16639;51.488;0.152;2023-02-28T10:10:56;6.40;99.90
29731;DHT22;16639;51.488;0.152;2023-02-28T10:13:49;6.40;99.90
29731;DHT22;16639;51.488;0.152;2023-02-28T10:19:13;6.50;99.90
29731;DHT22;16639;51.488;0.152;2023-02-28T10:21:55;6.50;99.90
29731;DHT22;16639;51.488;0.152;2023-02-28T10:24:47;6.50;99.90
29731;DHT22;16639;51.488;0.152;2023-02-28T10:27:28;6.60;99.90
29731;DHT22;16639;51.488;0.152;2023-02-28T10:29:58;5.30;99.90
29731;DHT22;16639;51.488;0.152;2023-02-28T10:37:38;6.70;99.90
29731;DHT22;16639;51.488;0.152;2023-02-28T10:43:03;6.60;99.90
29731;DHT22;16639;51.488;0.152;2023-02-28T10:45:32;6.70;99.90
29731;DHT22;16639;51.488;0.152;2023-02-28T10:56:12;6.70;99.90
29731;DHT22;16639;51.488;0.152;2023-02-28T10:59:00;6.70;99.90
29731;DHT22;16639;51.488;0.152;2023-02-28T11:01:44;6.80;99.90
29731;DHT22;16639;51.488;0.152;2023-02-28T11:09:52;6.80;99.90
29731;DHT22;16639;51.488;0.152;2023-02-28T11:12:30;6.80;99.90
29731;DHT22;16639;51.488;0.152;2023-02-28T11:15:05;7.20;99.90
29731;DHT22;16639;51.488;0.152;2023-02-28T11:17:33;6.70;99.90
29731;DHT22;16639;51.488;0.152;2023-02-28T11:20:06;6.70;99.90
29731;DHT22;16639;51.488;0.152;2023-02-28T11:22:37;6.70;99.90
29731;DHT22;16639;51.488;0.152;2023-02-28T11:25:20;6.70;99.90
29731;DHT22;16639;51.488;0.152;2023-02-28T11:27:57;6.80;99.90
29731;DHT22;16639;51.488;0.152;2023-02-28T11:30:39;6.80;99.90
29731;DHT22;16639;51.488;0.152;2023-02-28T11:33:27;6.80;99.90
29731;DHT22;16639;51.488;0.152;2023-02-28T11:36:00;6.80;99.90
29731;DHT22;16639;51.488;0.152;2023-02-28T11:38:28;6.90;99.90
29731;DHT22;16639;51.488;0.152;2023-02-28T11:46:49;6.90;99.90
29731;DHT22;16639;51.488;0.152;2023-02-28T11:55:03;6.80;99.90
29731;DHT22;16639;51.488;0.152;2023-02-28T12:11:56;6.90;99.90
29731;DHT22;16639;51.488;0.152;2023-02-28T12:17:37;7.10;99.90
29731;DHT22;16639;51.488;0.152;2023-02-28T12:28:14;7.20;99.90
29731;DHT22;16639;51.488;0.152;2023-02-28T12:31:04;7.20;99.90
29731;DHT22;16639;51.488;0.152;2023-02-28T12:33:36;7.30;99.90
29731;DHT22;16639;51.488;0.152;2023-02-28T12:36:11;7.30;99.90
29731;DHT22;16639;51.488;0.152;2023-02-28T12:39:00;7.30;99.90
29731;DHT22;16639;51.488;0.152;2023-02-28T12:41:39;7.60;99.90
29731;DHT22;16639;51.488;0.152;2023-02-28T12:44:20;7.20;99.90
29731;DHT22;16639;51.488;0.152;2023-02-28T12:46:57;7.20;99.90
29731;DHT22;16639;51.488;0.152;2023-02-28T12:52:17;7.20;99.90
29731;DHT22;16639;51.488;0.152;2023-02-28T12:54:51;7.30;99.90
29731;DHT22;16639;51.488;0.152;2023-02-28T12:57:32;7.20;99.90
29731;DHT22;16639;51.488;0.152;2023-02-28T13:00:13;7.30;99.90
29731;DHT22;16639;51.488;0.152;2023-02-28T13:09:16;7.20;99.90
29731;DHT22;16639;51.488;0.152;2023-02-28T13:11:50;7.30;99.90
29731;DHT22;16639;51.488;0.152;2023-02-28T13:17:09;7.30;99.90
29731;DHT22;16639;51.488;0.152;2023-02-28T13:24:56;7.40;99.90
29731;DHT22;16639;51.488;0.152;2023-02-28T13:27:35;7.40;99.90
29731;DHT22;16639;51.488;0.152;2023-02-28T13:33:29;7.50;99.90
29731;DHT22;16639;51.488;0.152;2023-02-28T13:39:01;7.50;99.90
29731;DHT22;16639;51.488;0.152;2023-02-28T13:49:29;7.50;99.90
29731;DHT22;16639;51.488;0.152;2023-02-28T13:57:42;7.50;99.90
29731;DHT22;16639;51.488;0.152;2023-02-28T14:02:56;7.50;99.90
29731;DHT22;16639;51.488;0.152;2023-02-28T14:05:29;7.50;99.90
29731;DHT22;16639;51.488;0.152;2023-02-28T14:08:25;7.50;99.90
29731;DHT22;16639;51.488;0.152;2023-02-28T14:11:08;7.40;99.90
29731;DHT22;16639;51.488;0.152;2023-02-28T14:13:46;7.40;99.90
29731;DHT22;16639;51.488;0.152;2023-02-28T14:16:23;7.50;99.90
29731;DHT22;16639;51.488;0.152;2023-02-28T14:19:05;7.40;99.90
29731;DHT22;16639;51.488;0.152;2023-02-28T14:21:39;7.40;99.90
29731;DHT22;16639;51.488;0.152;2023-02-28T14:24:34;7.40;99.90
29731;DHT22;16639;51.488;0.152;2023-02-28T14:35:26;7.50;99.90
29731;DHT22;16639;51.488;0.152;2023-02-28T14:37:56;7.50;99.90
29731;DHT22;16639;51.488;0.152;2023-02-28T14:40:30;7.50;99.90
29731;DHT22;16639;51.488;0.152;2023-02-28T14:43:01;7.50;99.90
29731;DHT22;16639;51.488;0.152;2023-02-28T14:45:31;8.10;99.90
29731;DHT22;16639;51.488;0.152;2023-02-28T14:47:59;7.50;99.90
29731;DHT22;16639;51.488;0.152;2023-02-28T14:50:36;7.60;99.90
29731;DHT22;16639;51.488;0.152;2023-02-28T14:53:06;7.50;99.90
29731;DHT22;16639;51.488;0.152;2023-02-28T14:55:45;7.40;99.90
29731;DHT22;16639;51.488;0.152;2023-02-28T14:58:55;7.50;99.90
29731;DHT22;16639;51.488;0.152;2023-02-28T15:02:34;7.60;99.90
29731;DHT22;16639;51.488;0.152;2023-02-28T15:05:26;7.60;99.90
29731;DHT22;16639;51.488;0.152;2023-02-28T15:08:22;8.10;99.90
29731;DHT22;16639;51.488;0.152;2023-02-28T15:11:14;7.60;99.90
29731;DHT22;16639;51.488;0.152;2023-02-28T15:14:01;7.60;99.90
29731;DHT22;16639;51.488;0.152;2023-02-28T15:17:01;7.60;99.90
29731;DHT22;16639;51.488;0.152;2023-02-28T15:19:31;7.60;99.90
29731;DHT22;16639;51.488;0.152;2023-02-28T15:22:22;7.60;99.90
29731;DHT22;16639;51.488;0.152;2023-02-28T15:24:53;7.50;99.90
29731;DHT22;16639;51.488;0.152;2023-02-28T15:27:22;7.60;99.90
29731;DHT22;16639;51.488;0.152;2023-02-28T15:29:56;7.60;99.90
29731;DHT22;16639;51.488;0.152;2023-02-28T15:32:26;7.60;99.90
29731;DHT22;16639;51.488;0.152;2023-02-28T15:34:54;7.60;99.90
29731;DHT22;16639;51.488;0.152;2023-02-28T15:37:52;7.60;99.90
29731;DHT22;16639;51.488;0.152;2023-02-28T15:40:36;7.70;99.90
29731;DHT22;16639;51.488;0.152;2023-02-28T15:45:48;7.60;99.90
29731;DHT22;16639;51.488;0.152;2023-02-28T15:48:18;7.60;99.90
29731;DHT22;16639;51.488;0.152;2023-02-28T15:51:20;8.40;99.90
29731;DHT22;16639;51.488;0.152;2023-02-28T15:53:57;7.80;99.90
29731;DHT22;16639;51.488;0.152;2023-02-28T15:56:35;7.80;99.90
29731;DHT22;16639;51.488;0.152;2023-02-28T15:59:06;8.10;99.90
29731;DHT22;16639;51.488;0.152;2023-02-28T16:01:38;7.80;99.90
29731;DHT22;16639;51.488;0.152;2023-02-28T16:04:16;7.70;99.90
29731;DHT22;16639;51.488;0.152;2023-02-28T16:07:01;7.70;99.90
29731;DHT22;16639;51.488;0.152;2023-02-28T16:09:28;7.60;99.90
29731;DHT22;16639;51.488;0.152;2023-02-28T16:12:02;7.60;99.90
29731;DHT22;16639;51.488;0.152;2023-02-28T16:14:31;7.30;99.90
29731;DHT22;16639;51.488;0.152;2023-02-28T16:17:06;7.60;99.90
29731;DHT22;16639;51.488;0.152;2023-02-28T16:19:36;7.50;99.90
29731;DHT22;16639;51.488;0.152;2023-02-28T16:22:03;7.60;99.90
29731;DHT22;16639;51.488;0.152;2023-02-28T16:24:31;7.60;99.90
29731;DHT22;16639;51.488;0.152;2023-02-28T16:26:58;7.60;99.90
29731;DHT22;16639;51.488;0.152;2023-02-28T16:29:34;7.60;99.90
29731;DHT22;16639;51.488;0.152;2023-02-28T16:32:06;7.60;99.90
29731;DHT22;16639;51.488;0.152;2023-02-28T16:34:34;7.60;99.90
29731;DHT22;16639;51.488;0.152;2023-02-28T16:37:01;7.60;99.90
29731;DHT22;16639;51.488;0.152;2023-02-28T16:39:28;7.60;99.90
29731;DHT22;16639;51.488;0.152;2023-02-28T16:41:56;7.60;99.90
29731;DHT22;16639;51.488;0.152;2023-02-28T16:44:32;7.60;99.90
29731;DHT22;16639;51.488;0.152;2023-02-28T16:47:02;7.60;99.90
29731;DHT22;16639;51.488;0.152;2023-02-28T16:49:30;7.70;99.90
29731;DHT22;16639;51.488;0.152;2023-02-28T16:51:59;7.70;99.90
29731;DHT22;16639;51.488;0.152;2023-02-28T16:54:26;7.70;99.90
29731;DHT22;16639;51.488;0.152;2023-02-28T16:56:53;7.70;99.90
29731;DHT22;16639;51.488;0.152;2023-02-28T16:59:26;7.70;99.90
29731;DHT22;16639;51.488;0.152;2023-02-28T17:01:55;7.60;99.90
29731;DHT22;16639;51.488;0.152;2023-02-28T17:04:26;8.20;99.90
29731;DHT22;16639;51.488;0.152;2023-02-28T17:06:54;7.90;99.90
29731;DHT22;16639;51.488;0.152;2023-02-28T17:09:22;7.60;99.90
29731;DHT22;16639;51.488;0.152;2023-02-28T17:12:06;7.60;99.90
29731;DHT22;16639;51.488;0.152;2023-02-28T17:14:34;7.60;99.90
29731;DHT22;16639;51.488;0.152;2023-02-28T17:17:01;7.60;99.90
29731;DHT22;16639;51.488;0.152;2023-02-28T17:19:28;7.60;99.90
29731;DHT22;16639;51.488;0.152;2023-02-28T17:21:56;7.60;99.90
29731;DHT22;16639;51.488;0.152;2023-02-28T17:24:40;8.00;99.90
29731;DHT22;16639;51.488;0.152;2023-02-28T17:27:14;7.50;99.90
29731;DHT22;16639;51.488;0.152;2023-02-28T17:33:43;7.50;99.90
29731;DHT22;16639;51.488;0.152;2023-02-28T17:36:35;7.50;99.90
29731;DHT22;16639;51.488;0.152;2023-02-28T17:40:06;7.50;99.90
29731;DHT22;16639;51.488;0.152;2023-02-28T17:43:17;7.50;99.90
29731;DHT22;16639;51.488;0.152;2023-02-28T17:46:25;7.40;99.90
29731;DHT22;16639;51.488;0.152;2023-02-28T17:48:54;7.50;99.90
29731;DHT22;16639;51.488;0.152;2023-02-28T17:51:23;7.40;99.90
29731;DHT22;16639;51.488;0.152;2023-02-28T17:54:06;7.40;99.90
29731;DHT22;16639;51.488;0.152;2023-02-28T17:56:53;7.40;99.90
29731;DHT22;16639;51.488;0.152;2023-02-28T17:59:31;7.40;99.90
29731;DHT22;16639;51.488;0.152;2023-02-28T18:02:31;7.40;99.90
29731;DHT22;16639;51.488;0.152;2023-02-28T18:05:10;7.40;99.90
29731;DHT22;16639;51.488;0.152;2023-02-28T18:07:49;7.60;99.90
29731;DHT22;16639;51.488;0.152;2023-02-28T18:10:22;7.50;99.90
29731;DHT22;16639;51.488;0.152;2023-02-28T18:13:17;7.70;99.90
29731;DHT22;16639;51.488;0.152;2023-02-28T18:15:59;7.50;99.90
29731;DHT22;16639;51.488;0.152;2023-02-28T18:18:49;7.50;99.90
29731;DHT22;16639;51.488;0.152;2023-02-28T18:21:29;7.40;99.90
29731;DHT22;16639;51.488;0.152;2023-02-28T18:24:02;7.40;99.90
29731;DHT22;16639;51.488;0.152;2023-02-28T18:26:35;7.40;99.90
29731;DHT22;16639;51.488;0.152;2023-02-28T18:32:12;7.60;99.90
29731;DHT22;16639;51.488;0.152;2023-02-28T18:35:17;7.50;99.90
29731;DHT22;16639;51.488;0.152;2023-02-28T18:38:23;7.50;99.90
29731;DHT22;16639;51.488;0.152;2023-02-28T18:41:02;7.50;99.90
29731;DHT22;16639;51.488;0.152;2023-02-28T18:43:32;7.40;99.90
29731;DHT22;16639;51.488;0.152;2023-02-28T18:46:08;7.40;99.90
29731;DHT22;16639;51.488;0.152;2023-02-28T18:48:36;6.30;99.90
29731;DHT22;16639;51.488;0.152;2023-02-28T18:51:50;7.50;99.90
29731;DHT22;16639;51.488;0.152;2023-02-28T18:55:00;7.40;99.90
29731;DHT22;16639;51.488;0.152;2023-02-28T18:57:37;7.60;99.90
29731;DHT22;16639;51.488;0.152;2023-02-28T19:00:05;7.50;99.90
29731;DHT22;16639;51.488;0.152;2023-02-28T19:02:36;7.50;99.90
29731;DHT22;16639;51.488;0.152;2023-02-28T19:05:04;7.50;99.90
29731;DHT22;16639;51.488;0.152;2023-02-28T19:07:38;7.50;99.90
29731;DHT22;16639;51.488;0.152;2023-02-28T19:10:08;7.50;99.90
29731;DHT22;16639;51.488;0.152;2023-02-28T19:12:36;7.50;99.90